地図

経路データ

SID SEASON NUMBER BASIN SUBBASIN NAME ISO_TIME NATURE LAT LON WMO_WIND WMO_PRES WMO_AGENCY TRACK_TYPE DIST2LAND LANDFALL IFLAG USA_AGENCY USA_ATCF_ID USA_LAT USA_LON USA_RECORD USA_STATUS USA_WIND USA_PRES USA_SSHS USA_R34_NE USA_R34_SE USA_R34_SW USA_R34_NW USA_R50_NE USA_R50_SE USA_R50_SW USA_R50_NW USA_R64_NE USA_R64_SE USA_R64_SW USA_R64_NW USA_POCI USA_ROCI USA_RMW USA_EYE TOKYO_LAT TOKYO_LON TOKYO_GRADE TOKYO_WIND TOKYO_PRES TOKYO_R50_DIR TOKYO_R50_LONG TOKYO_R50_SHORT TOKYO_R30_DIR TOKYO_R30_LONG TOKYO_R30_SHORT TOKYO_LAND CMA_LAT CMA_LON CMA_CAT CMA_WIND CMA_PRES HKO_LAT HKO_LON HKO_CAT HKO_WIND HKO_PRES NEWDELHI_LAT NEWDELHI_LON NEWDELHI_GRADE NEWDELHI_WIND NEWDELHI_PRES NEWDELHI_CI NEWDELHI_DP NEWDELHI_POCI REUNION_LAT REUNION_LON REUNION_TYPE REUNION_WIND REUNION_PRES REUNION_TNUM REUNION_CI REUNION_RMW REUNION_R34_NE REUNION_R34_SE REUNION_R34_SW REUNION_R34_NW REUNION_R50_NE REUNION_R50_SE REUNION_R50_SW REUNION_R50_NW REUNION_R64_NE REUNION_R64_SE REUNION_R64_SW REUNION_R64_NW BOM_LAT BOM_LON BOM_TYPE BOM_WIND BOM_PRES BOM_TNUM BOM_CI BOM_RMW BOM_R34_NE BOM_R34_SE BOM_R34_SW BOM_R34_NW BOM_R50_NE BOM_R50_SE BOM_R50_SW BOM_R50_NW BOM_R64_NE BOM_R64_SE BOM_R64_SW BOM_R64_NW BOM_ROCI BOM_POCI BOM_EYE BOM_POS_METHOD BOM_PRES_METHOD NADI_LAT NADI_LON NADI_CAT NADI_WIND NADI_PRES WELLINGTON_LAT WELLINGTON_LON WELLINGTON_WIND WELLINGTON_PRES DS824_LAT DS824_LON DS824_STAGE DS824_WIND DS824_PRES TD9636_LAT TD9636_LON TD9636_STAGE TD9636_WIND TD9636_PRES TD9635_LAT TD9635_LON TD9635_WIND TD9635_PRES TD9635_ROCI NEUMANN_LAT NEUMANN_LON NEUMANN_CLASS NEUMANN_WIND NEUMANN_PRES MLC_LAT MLC_LON MLC_CLASS MLC_WIND MLC_PRES USA_GUST BOM_GUST BOM_GUST_PER REUNION_GUST REUNION_GUST_PER USA_SEAHGT USA_SEARAD_NE USA_SEARAD_SE USA_SEARAD_SW USA_SEARAD_NW STORM_SPEED STORM_DIR
1951038S11099 1951 11 SI WA NOT_NAMED 1951-02-07 01:00:00 NR -11.0000 99.0000 1002 bom main 828 825 ______O___O___ -1 -11.0000 99.0000 1002 -11.0000 99.0000 7 6 157
1951038S11099 1951 11 SI WA NOT_NAMED 1951-02-07 03:00:00 NR -11.1781 99.0765 main 832 829 ______P___P___ -1 -11.1938 99.0870 -11.1624 99.0661 7 6 157
1951038S11099 1951 11 SI WA NOT_NAMED 1951-02-07 06:00:00 TS -11.4299 99.1897 main 836 836 O_____P__OP___ jtwc_sh SH171951 -11.4000 99.2000 -1 -11.4820 99.2097 -11.4000 99.2000 TC 25 -11.4076 99.1593 7 5 160
1951038S11099 1951 11 SI WA NOT_NAMED 1951-02-07 09:00:00 TS -11.6845 99.2661 main 849 849 P_____P__PP___ SH171951 -11.6500 99.2550 -1 -11.7638 99.3120 -11.6500 99.2550 TC 25 -11.6569 99.2369 7 5 166
1951038S11099 1951 11 SI WA NOT_NAMED 1951-02-07 12:00:00 TS -11.9348 99.3168 main 863 863 O_____P__OP___ jtwc_sh SH171951 -11.9000 99.3000 -1 -12.0353 99.3817 -11.9000 99.3000 TC 25 -11.9128 99.2896 7 5 169
1951038S11099 1951 11 SI WA NOT_NAMED 1951-02-07 13:00:00 TS -12.0146 99.3257 main 870 870 P_____P__PO___ SH171951 -11.9833 99.3110 -1 -12.1228 99.3955 -11.9833 99.3110 TC 25 -12.0000 99.3000 7 5 175
1951038S11099 1951 11 SI WA NOT_NAMED 1951-02-07 15:00:00 TS -12.1840 99.3363 main 885 885 P_____P__PP___ SH171951 -12.1500 99.3225 -1 -12.2927 99.4061 -12.1500 99.3225 TC 25 -12.1771 99.3079 7 5 181
1951038S11099 1951 11 SI WA NOT_NAMED 1951-02-07 18:00:00 TS -12.4350 99.3110 main 901 901 O_____P__OP___ jtwc_sh SH171951 -12.4000 99.3000 -1 -12.5323 99.3727 -12.4000 99.3000 TC 25 -12.4429 99.2823 7 5 190
1951038S11099 1951 11 SI WA NOT_NAMED 1951-02-07 21:00:00 TS -12.6841 99.2415 main 932 932 P_____P__PP___ SH171951 -12.6574 99.2450 -1 -12.7501 99.2691 -12.6574 99.2450 TC 25 -12.6980 99.2036 7 5 205
1951038S11099 1951 11 SI WA NOT_NAMED 1951-02-08 00:00:00 TS -12.9138 99.0848 main 955 955 O_____P__OP___ jtwc_sh SH171951 -12.9000 99.1000 -1 -12.9423 99.0827 -12.9000 99.1000 TC 25 -12.9300 99.0625 7 6 219
1951038S11099 1951 11 SI WA NOT_NAMED 1951-02-08 01:00:00 TS -12.9817 98.9978 998 bom main 971 971 P_____O__PO___ SH171951 -12.9776 99.0229 -1 -13.0000 99.0000 998 -12.9776 99.0229 TC 25 -13.0000 99.0000 7 7 237
1951038S11099 1951 11 SI WA NOT_NAMED 1951-02-08 03:00:00 TS -13.1022 98.7891 main 994 994 P_____P__PP___ SH171951 -13.1225 98.8301 -1 -13.1057 98.8032 -13.1225 98.8301 TC 25 -13.1151 98.8539 7 7 244
1951038S11099 1951 11 SI WA NOT_NAMED 1951-02-08 06:00:00 TS -13.2525 98.4301 main 1041 1041 O_____P__OP___ jtwc_sh SH171951 -13.3000 98.5000 -1 -13.2470 98.4462 -13.3000 98.5000 TC 25 -13.2622 98.5781 7 7 249
1951038S11099 1951 11 SI WA NOT_NAMED 1951-02-08 09:00:00 TS -13.3678 98.0954 main 1072 1072 P_____P__PP___ SH171951 -13.3999 98.2148 -1 -13.3794 98.0445 -13.3999 98.2148 TC 25 -13.3981 98.2565 7 7 250
1951038S11099 1951 11 SI WA NOT_NAMED 1951-02-08 12:00:00 TS -13.4898 97.7490 main 1112 1112 O_____P__OP___ jtwc_sh SH171951 -13.5000 97.9000 -1 -13.5164 97.6307 -13.5000 97.9000 TC 25 -13.5449 97.9143 7 7 249
1951038S11099 1951 11 SI WA NOT_NAMED 1951-02-08 13:00:00 TS -13.5429 97.6253 main 1120 1120 P_____P__PO___ SH171951 -13.5527 97.7729 -1 -13.5654 97.4958 -13.5527 97.7729 TC 25 -13.6000 97.8000 7 8 246
1951038S11099 1951 11 SI WA NOT_NAMED 1951-02-08 15:00:00 TS -13.6593 97.3649 main 1151 1159 P_____P__PP___ SH171951 -13.6776 97.5000 -1 -13.6716 97.2378 -13.6776 97.5000 TC 25 -13.6911 97.5111 7 8 242
1951038S11099 1951 11 SI WA NOT_NAMED 1951-02-08 18:00:00 TS -13.8650 96.9976 main 1198 1198 O_____P__OP___ jtwc_sh SH171951 -13.9000 97.1000 -1 -13.8589 96.8986 -13.9000 97.1000 TC 25 -13.8456 97.0697 7 8 237
1951038S11099 1951 11 SI WA NOT_NAMED 1951-02-08 21:00:00 TS -14.0879 96.6760 main 1237 1237 P_____P__PP___ SH171951 -14.1050 96.7028 -1 -14.0924 96.6457 -14.1050 96.7028 TC 25 -14.0574 96.7040 7 7 221
1951038S11099 1951 11 SI WA NOT_NAMED 1951-02-09 00:00:00 TS -14.3923 96.5203 main 1276 1276 O_____P__OP___ jtwc_sh SH171951 -14.4000 96.5000 -1 -14.3862 96.5122 -14.4000 96.5000 TC 25 -14.3676 96.5099 7 7 199
1951038S11099 1951 11 SI WA NOT_NAMED 1951-02-09 01:00:00 TS -14.5183 96.5255 998 bom main 1283 1282 P_____O__PO___ SH171951 -14.5275 96.5074 -1 -14.5000 96.5000 998 -14.5275 96.5074 TC 25 -14.5000 96.5000 7 9 165
1951038S11099 1951 11 SI WA NOT_NAMED 1951-02-09 03:00:00 TS -14.8180 96.6361 main 1298 1297 P_____P__PP___ SH171951 -14.8324 96.6301 -1 -14.7685 96.5832 -14.8324 96.6301 TC 25 -14.8385 96.6081 7 11 153
1951038S11099 1951 11 SI WA NOT_NAMED 1951-02-09 06:00:00 TS -15.3569 96.9609 main 1314 1314 O_____P__OP___ jtwc_sh SH171951 -15.4000 97.0000 -1 -15.2253 96.8167 -15.4000 97.0000 TC 25 -15.4478 96.9601 7 14 148
1951038S11099 1951 11 SI WA NOT_NAMED 1951-02-09 09:00:00 TS -15.9903 97.3954 main 1335 1335 P_____P__PP___ SH171951 -16.1002 97.4695 -1 -15.7379 97.1619 -16.1002 97.4695 TC 25 -16.1200 97.4602 7 16 145
1951038S11099 1951 11 SI WA NOT_NAMED 1951-02-09 12:00:00 TS -16.6376 97.8983 main 1354 1357 O_____P__OP___ jtwc_sh SH171951 -16.8000 98.0000 -1 -16.2963 97.5973 -16.8000 98.0000 TC 25 -16.7890 98.0175 7 16 143
1951038S11099 1951 11 SI WA NOT_NAMED 1951-02-09 13:00:00 TS -16.8321 98.0601 main 1360 1360 P_____P__PO___ SH171951 -16.9894 98.1560 -1 -16.4908 97.7588 -16.9894 98.1560 TC 25 -17.0000 98.2000 7 14 141
1951038S11099 1951 11 SI WA NOT_NAMED 1951-02-09 15:00:00 TS -17.1924 98.3709 main 1379 1379 P_____P__PP___ SH171951 -17.3298 98.4580 -1 -16.8902 98.1016 -17.3298 98.4580 TC 25 -17.3457 98.4826 7 14 140
1951038S11099 1951 11 SI WA NOT_NAMED 1951-02-09 18:00:00 TS -17.7140 98.8441 main 1404 1399 O_____P__OP___ jtwc_sh SH171951 -17.8000 98.9000 -1 -17.5096 98.6532 -17.8000 98.9000 TC 25 -17.8327 98.9118 7 14 139
1951038S11099 1951 11 SI WA NOT_NAMED 1951-02-09 21:00:00 TS -18.2428 99.3242 main 1427 1432 P_____P__PP___ SH171951 -18.2773 99.3356 -1 -18.1449 99.2300 -18.2773 99.3356 TC 25 -18.3123 99.3579 7 14 139
1951038S11099 1951 11 SI WA NOT_NAMED 1951-02-10 00:00:00 TS -18.8009 99.8238 main 1462 1457 O_____P__OP___ jtwc_sh SH171951 -18.8000 99.8000 -1 -18.7864 99.8099 -18.8000 99.8000 TC 25 -18.8191 99.8330 7 15 140
1951038S11099 1951 11 SI WA NOT_NAMED 1951-02-10 01:00:00 TS -19.0015 99.9979 998 bom main 1468 1415 P_____O__PO___ SH171951 -18.9995 99.9694 -1 -19.0000 100.000 998 -18.9995 99.9694 TC 25 -19.0000 100.000 7 16 141
1951038S11099 1951 11 SI WA NOT_NAMED 1951-02-10 03:00:00 TS -19.4239 100.359 main 1415 1343 P_____P__PP___ SH171951 -19.4274 100.328 -1 -19.4255 100.372 -19.4274 100.328 TC 25 -19.4046 100.370 7 17 141
1951038S11099 1951 11 SI WA NOT_NAMED 1951-02-10 06:00:00 TS -20.0781 100.918 main 1343 1267 O_____P__OP___ jtwc_sh SH171951 -20.1000 100.900 -1 -20.0596 100.909 -20.1000 100.900 TC 25 -20.0495 100.957 7 17 141
1951038S11099 1951 11 SI WA NOT_NAMED 1951-02-10 09:00:00 TS -20.7276 101.490 main 1267 1202 P_____P__PP___ SH171951 -20.7575 101.508 -1 -20.6893 101.426 -20.7575 101.508 TC 25 -20.7173 101.553 7 17 141
1951038S11099 1951 11 SI WA NOT_NAMED 1951-02-10 12:00:00 TS -21.3684 102.045 main 1202 1180 O_____P__OP___ jtwc_sh SH171951 -21.4000 102.100 -1 -21.3155 101.927 -21.4000 102.100 TC 25 -21.3829 102.122 7 16 141
1951038S11099 1951 11 SI WA NOT_NAMED 1951-02-10 13:00:00 TS -21.5767 102.221 main 1179 1133 P_____P__PO___ SH171951 -21.6056 102.284 -1 -21.5236 102.091 -21.6056 102.284 TC 25 -21.6000 102.300 7 16 143
1951038S11099 1951 11 SI WA NOT_NAMED 1951-02-10 15:00:00 TS -21.9867 102.556 main 1133 1078 P_____P__PP___ SH171951 -22.0073 102.630 -1 -21.9388 102.415 -22.0073 102.630 TC 25 -22.0234 102.633 7 15 144
1951038S11099 1951 11 SI WA NOT_NAMED 1951-02-10 18:00:00 TS -22.5928 103.020 main 1078 1015 O_____P__OP___ jtwc_sh SH171951 -22.6000 103.100 -1 -22.5595 102.894 -22.6000 103.100 TC 25 -22.6355 103.082 7 15 146
1951038S11099 1951 11 SI WA NOT_NAMED 1951-02-10 21:00:00 TS -23.1974 103.452 main 1015 965 P_____P__PP___ SH171951 -23.1977 103.514 -1 -23.1782 103.368 -23.1977 103.514 TC 25 -23.2275 103.489 7 14 147
1951038S11099 1951 11 SI WA NOT_NAMED 1951-02-11 00:00:00 TS -23.8007 103.866 main 965 953 O_____P__OP___ jtwc_sh SH171951 -23.8000 103.900 -1 -23.7949 103.842 -23.8000 103.900 TC 25 -23.8078 103.874 7 14 148
1951038S11099 1951 11 SI WA NOT_NAMED 1951-02-11 01:00:00 NR -24.0000 104.000 1000 bom main 953 ______O___O___ SH171951 -1 -24.0000 104.000 1000 TC -24.0000 104.000 7 14 148

IBTrACS Databaseについて

本データベースは、米国NOAAが公開する1842年以降の世界の熱帯低気圧のベストトラックデータアーカイブInternational Best Track Archive for Climate Stewardship (IBTrACS)を、ウェブで閲覧しやすい形式に変換したものです。

最終更新日:2021-10-08